createdAt,value
2022-10-09T00:01:10.379Z,12.10
2022-10-09T00:03:40.419Z,12.00
2022-10-09T00:06:10.238Z,12.00
2022-10-09T00:08:43.229Z,12.00
2022-10-09T00:11:15.921Z,12.00
2022-10-09T00:13:43.333Z,12.00
2022-10-09T00:16:13.000Z,12.00
2022-10-09T00:18:40.053Z,12.00
2022-10-09T00:21:15.083Z,12.00
2022-10-09T00:23:41.735Z,12.00
2022-10-09T00:26:08.684Z,11.90
2022-10-09T00:28:38.459Z,11.90
2022-10-09T00:31:07.538Z,11.90
2022-10-09T00:33:35.328Z,11.90
2022-10-09T00:36:07.869Z,11.90
2022-10-09T00:38:35.356Z,11.90
2022-10-09T00:41:02.736Z,11.80
2022-10-09T00:43:42.296Z,11.80
2022-10-09T00:46:21.466Z,11.80
2022-10-09T00:49:00.153Z,11.80
2022-10-09T00:51:28.429Z,11.70
2022-10-09T00:53:55.248Z,11.80
2022-10-09T00:56:22.208Z,11.70
2022-10-09T00:58:53.785Z,11.70
2022-10-09T01:01:20.608Z,11.70
2022-10-09T01:03:47.398Z,11.70
2022-10-09T01:06:15.154Z,11.70
2022-10-09T01:08:50.818Z,11.60
2022-10-09T01:11:29.651Z,11.60
2022-10-09T01:14:06.017Z,11.60
2022-10-09T01:16:41.297Z,11.60
2022-10-09T01:19:44.588Z,11.60
2022-10-09T01:22:39.479Z,11.60
2022-10-09T01:25:10.586Z,11.50
2022-10-09T01:27:38.988Z,11.50
2022-10-09T01:30:09.808Z,11.50
2022-10-09T01:32:45.060Z,11.40
2022-10-09T01:35:13.647Z,11.40
2022-10-09T01:37:44.707Z,11.40
2022-10-09T01:40:14.161Z,11.40
2022-10-09T01:42:42.249Z,11.40
2022-10-09T01:45:10.233Z,11.40
2022-10-09T01:47:37.911Z,11.40
2022-10-09T01:50:26.212Z,11.40
2022-10-09T01:53:04.003Z,11.40
2022-10-09T01:55:36.568Z,11.30
2022-10-09T01:58:21.726Z,11.30
2022-10-09T02:01:11.143Z,11.30
2022-10-09T02:03:40.975Z,11.30
2022-10-09T02:06:11.858Z,11.20
2022-10-09T02:08:40.233Z,11.20
2022-10-09T02:11:07.650Z,11.20
2022-10-09T02:13:36.024Z,11.20
2022-10-09T02:16:11.723Z,11.20
2022-10-09T02:18:42.517Z,11.10
2022-10-09T02:21:16.329Z,11.10
2022-10-09T02:23:46.325Z,11.20
2022-10-09T02:26:13.776Z,11.10
2022-10-09T02:28:45.736Z,11.10
2022-10-09T02:31:26.209Z,11.10
2022-10-09T02:34:04.641Z,11.10
2022-10-09T02:36:31.800Z,11.00
2022-10-09T02:38:58.899Z,11.00
2022-10-09T02:41:26.072Z,11.00
2022-10-09T02:43:53.199Z,11.00
2022-10-09T02:46:20.056Z,11.00
2022-10-09T02:48:48.125Z,11.00
2022-10-09T02:51:16.288Z,10.90
2022-10-09T02:53:43.228Z,10.90
2022-10-09T02:56:10.299Z,10.90
2022-10-09T02:58:38.877Z,10.90
2022-10-09T03:01:06.452Z,10.90
2022-10-09T03:03:36.036Z,10.80
2022-10-09T03:06:09.929Z,10.80
2022-10-09T03:08:38.489Z,10.80
2022-10-09T03:11:05.997Z,10.80
2022-10-09T03:13:32.964Z,10.70
2022-10-09T03:16:11.717Z,10.70
2022-10-09T03:18:38.990Z,10.70
2022-10-09T03:21:10.152Z,10.70
2022-10-09T03:23:38.210Z,10.70
2022-10-09T03:26:10.888Z,10.70
2022-10-09T03:28:39.207Z,10.70
2022-10-09T03:31:06.623Z,10.60
2022-10-09T03:33:34.953Z,10.60
2022-10-09T03:36:03.084Z,10.60
2022-10-09T03:38:29.927Z,10.50
2022-10-09T03:40:59.982Z,10.50
2022-10-09T03:43:26.744Z,10.50
2022-10-09T03:45:53.462Z,10.50
2022-10-09T03:48:20.563Z,10.50
2022-10-09T03:50:47.632Z,10.40
2022-10-09T03:53:15.507Z,10.40
2022-10-09T03:55:43.251Z,10.40
2022-10-09T03:58:10.422Z,10.30
2022-10-09T04:00:37.476Z,10.40
2022-10-09T04:03:07.970Z,10.30
2022-10-09T04:05:36.787Z,10.40
2022-10-09T04:08:03.555Z,10.40
2022-10-09T04:10:30.245Z,10.30
2022-10-09T04:12:58.285Z,10.30
2022-10-09T04:15:26.193Z,10.30
2022-10-09T04:17:53.237Z,10.20
2022-10-09T04:20:20.896Z,10.20
2022-10-09T04:22:47.844Z,10.20
2022-10-09T04:25:14.859Z,10.20
2022-10-09T04:27:42.550Z,10.10
2022-10-09T04:30:10.776Z,10.20
2022-10-09T04:32:38.767Z,10.10
2022-10-09T04:35:05.998Z,10.10
2022-10-09T04:37:32.769Z,10.10
2022-10-09T04:40:01.031Z,10.10
2022-10-09T04:42:27.701Z,10.10
2022-10-09T04:44:54.689Z,10.10
2022-10-09T04:47:21.404Z,10.00
2022-10-09T04:49:48.453Z,10.00
2022-10-09T04:52:15.402Z,10.00
2022-10-09T04:57:09.219Z,9.90
2022-10-09T04:59:35.923Z,9.90
2022-10-09T05:02:02.689Z,9.90
2022-10-09T05:04:30.920Z,9.90
2022-10-09T05:06:57.595Z,9.90
2022-10-09T05:09:24.370Z,9.90
2022-10-09T05:11:52.648Z,9.80
2022-10-09T05:14:19.328Z,9.80
2022-10-09T05:17:12.022Z,9.80
2022-10-09T05:19:32.978Z,9.80
2022-10-09T05:22:00.992Z,9.80
2022-10-09T05:24:28.594Z,9.80
2022-10-09T05:26:55.715Z,9.80
2022-10-09T05:29:22.483Z,9.70
2022-10-09T05:31:50.959Z,9.70
2022-10-09T05:34:18.897Z,9.60
2022-10-09T05:36:46.060Z,9.60
2022-10-09T05:39:12.940Z,9.60
2022-10-09T05:41:41.002Z,9.60
2022-10-09T05:44:08.903Z,9.60
2022-10-09T05:46:35.575Z,9.60
2022-10-09T05:49:06.117Z,9.60
2022-10-09T05:51:35.589Z,9.60
2022-10-09T05:54:03.005Z,9.60
2022-10-09T05:56:34.842Z,9.60
2022-10-09T05:59:07.084Z,9.60
2022-10-09T06:01:36.667Z,9.60
2022-10-09T06:04:04.287Z,9.60
2022-10-09T06:06:35.604Z,9.60
2022-10-09T06:09:02.297Z,9.60
2022-10-09T06:11:32.566Z,9.60
2022-10-09T06:14:00.997Z,9.50
2022-10-09T06:16:30.851Z,9.50
2022-10-09T06:18:59.491Z,9.50
2022-10-09T06:21:27.034Z,9.50
2022-10-09T06:23:56.267Z,9.50
2022-10-09T06:26:29.039Z,9.50
2022-10-09T06:28:57.013Z,9.50
2022-10-09T06:31:30.086Z,9.50
2022-10-09T06:34:01.077Z,9.50
2022-10-09T06:36:31.759Z,9.50
2022-10-09T06:39:03.594Z,9.50
2022-10-09T06:41:30.928Z,9.60
2022-10-09T06:44:04.270Z,9.60
2022-10-09T06:46:34.434Z,9.60
2022-10-09T06:49:02.454Z,9.60
2022-10-09T06:51:30.290Z,9.60
2022-10-09T06:53:59.321Z,9.60
2022-10-09T06:56:28.310Z,9.70
2022-10-09T06:58:56.331Z,9.80
2022-10-09T07:01:27.001Z,9.80
2022-10-09T07:03:57.497Z,10.00
2022-10-09T07:06:26.753Z,10.10
2022-10-09T07:08:58.954Z,10.20
2022-10-09T07:11:28.699Z,10.40
2022-10-09T07:13:57.875Z,10.60
2022-10-09T07:16:30.826Z,10.70
2022-10-09T07:18:58.135Z,10.90
2022-10-09T07:21:24.835Z,11.00
2022-10-09T07:23:51.463Z,11.10
2022-10-09T07:26:21.049Z,11.30
2022-10-09T07:28:48.815Z,11.40
2022-10-09T07:31:16.024Z,11.60
2022-10-09T07:33:42.910Z,11.80
2022-10-09T07:36:10.977Z,11.90
2022-10-09T07:38:38.975Z,12.00
2022-10-09T07:41:08.948Z,12.30
2022-10-09T07:43:37.276Z,12.40
2022-10-09T07:46:06.055Z,12.50
2022-10-09T07:48:36.497Z,12.70
2022-10-09T07:51:15.166Z,12.80
2022-10-09T07:53:42.227Z,12.90
2022-10-09T07:56:15.730Z,13.10
2022-10-09T07:58:43.204Z,13.10
2022-10-09T08:01:10.699Z,13.30
2022-10-09T08:03:38.680Z,13.40
2022-10-09T08:06:05.843Z,13.50
2022-10-09T08:08:33.251Z,13.70
2022-10-09T08:11:00.211Z,13.90
2022-10-09T08:13:27.078Z,14.10
2022-10-09T08:18:20.956Z,14.40
2022-10-09T08:21:01.118Z,14.50
2022-10-09T08:23:28.348Z,14.70
2022-10-09T08:25:55.138Z,14.80
2022-10-09T08:28:22.340Z,15.00
2022-10-09T08:30:49.220Z,15.10
2022-10-09T08:33:22.105Z,15.30
2022-10-09T08:35:50.677Z,15.40
2022-10-09T08:38:45.007Z,15.50
2022-10-09T08:41:27.397Z,15.60
2022-10-09T08:44:02.880Z,15.70
2022-10-09T08:46:35.129Z,15.70
2022-10-09T08:49:04.319Z,15.80
2022-10-09T08:51:36.228Z,15.90
2022-10-09T08:54:19.331Z,16.00
2022-10-09T08:56:47.804Z,16.00
2022-10-09T08:59:14.549Z,16.10
2022-10-09T09:01:52.729Z,16.20
2022-10-09T09:04:54.451Z,16.20
2022-10-09T09:08:13.741Z,16.30
2022-10-09T09:10:42.669Z,16.40
2022-10-09T09:13:43.347Z,16.50
2022-10-09T09:16:53.596Z,16.60
2022-10-09T09:19:51.500Z,16.60
2022-10-09T09:22:18.330Z,16.70
2022-10-09T09:24:50.742Z,16.60
2022-10-09T09:27:38.881Z,16.70
2022-10-09T09:30:15.187Z,16.70
2022-10-09T09:32:48.744Z,16.70
2022-10-09T09:35:35.379Z,16.80
2022-10-09T09:38:02.184Z,16.70
2022-10-09T09:40:38.232Z,16.70
2022-10-09T09:43:16.804Z,16.70
2022-10-09T09:45:44.616Z,16.60
2022-10-09T09:48:24.817Z,16.60
2022-10-09T09:51:16.245Z,16.70
2022-10-09T09:53:45.982Z,16.60
2022-10-09T09:56:12.745Z,16.60
2022-10-09T09:58:53.135Z,16.70
2022-10-09T10:01:26.451Z,16.70
2022-10-09T10:03:56.073Z,16.70
2022-10-09T10:06:30.353Z,16.70
2022-10-09T10:09:19.801Z,16.70
2022-10-09T10:12:16.486Z,16.70
2022-10-09T10:14:50.268Z,16.70
2022-10-09T10:17:28.753Z,16.70
2022-10-09T10:19:56.640Z,16.70
2022-10-09T10:22:28.153Z,16.70
2022-10-09T10:24:57.814Z,16.70
2022-10-09T10:27:42.757Z,16.70
2022-10-09T10:30:15.858Z,16.70
2022-10-09T10:33:03.751Z,16.70
2022-10-09T10:35:35.923Z,16.70
2022-10-09T10:38:13.453Z,16.70
2022-10-09T10:40:52.745Z,16.80
2022-10-09T10:43:28.335Z,16.80
2022-10-09T10:46:15.361Z,16.80
2022-10-09T10:48:47.114Z,16.80
2022-10-09T10:51:32.069Z,16.80
2022-10-09T10:54:04.685Z,16.80
2022-10-09T10:56:42.618Z,16.80
2022-10-09T10:59:38.002Z,16.80
2022-10-09T11:02:21.075Z,16.80
2022-10-09T11:05:11.508Z,16.90
2022-10-09T11:07:51.281Z,17.00
2022-10-09T11:10:32.891Z,17.10
2022-10-09T11:13:11.027Z,17.00
2022-10-09T11:16:17.052Z,17.10
2022-10-09T11:19:02.598Z,17.10
2022-10-09T11:21:47.713Z,17.20
2022-10-09T11:24:43.488Z,17.20
2022-10-09T11:27:21.410Z,17.10
2022-10-09T11:30:02.978Z,17.00
2022-10-09T11:35:21.468Z,17.00
2022-10-09T11:37:58.584Z,17.00
2022-10-09T11:40:33.905Z,17.00
2022-10-09T11:43:28.569Z,17.00
2022-10-09T11:46:01.630Z,16.90
2022-10-09T11:48:35.692Z,17.00
2022-10-09T11:51:09.317Z,17.00
2022-10-09T11:53:38.578Z,17.00
2022-10-09T11:56:07.602Z,17.00
2022-10-09T11:58:35.344Z,17.00
2022-10-09T12:01:21.505Z,17.00
2022-10-09T12:04:04.386Z,17.00
2022-10-09T12:06:32.636Z,17.00
2022-10-09T12:09:04.009Z,17.00
2022-10-09T12:11:32.743Z,17.10
2022-10-09T12:14:03.368Z,17.10
2022-10-09T12:16:45.009Z,17.10
2022-10-09T12:19:38.922Z,17.10
2022-10-09T12:22:08.336Z,17.10
2022-10-09T12:24:40.851Z,17.10
2022-10-09T12:27:08.880Z,17.10
2022-10-09T12:29:45.193Z,17.10
2022-10-09T12:32:23.224Z,17.10
2022-10-09T12:34:51.147Z,17.10
2022-10-09T12:37:20.999Z,17.10
2022-10-09T12:39:49.197Z,17.10
2022-10-09T12:42:24.874Z,17.20
2022-10-09T12:44:54.985Z,17.20
2022-10-09T12:47:26.698Z,17.20
2022-10-09T12:50:01.007Z,17.20
2022-10-09T12:52:28.355Z,17.30
2022-10-09T12:54:55.312Z,17.20
2022-10-09T12:57:26.827Z,17.20
2022-10-09T12:59:54.924Z,17.20
2022-10-09T13:02:22.510Z,17.20
2022-10-09T13:05:00.902Z,17.30
2022-10-09T13:07:29.820Z,17.30
2022-10-09T13:10:07.411Z,17.30
2022-10-09T13:12:36.149Z,17.30
2022-10-09T13:15:08.401Z,17.30
2022-10-09T13:17:41.468Z,17.30
2022-10-09T13:20:17.165Z,17.40
2022-10-09T13:22:58.310Z,17.40
2022-10-09T13:25:27.455Z,17.40
2022-10-09T13:27:55.257Z,17.40
2022-10-09T13:30:22.018Z,17.40
2022-10-09T13:32:48.876Z,17.40
2022-10-09T13:35:16.028Z,17.40
2022-10-09T13:37:42.706Z,17.50
2022-10-09T13:40:20.480Z,17.50
2022-10-09T13:42:55.295Z,17.50
2022-10-09T13:45:22.515Z,17.50
2022-10-09T13:47:49.518Z,17.50
2022-10-09T13:50:17.820Z,17.60
2022-10-09T13:52:44.633Z,17.50
2022-10-09T13:55:11.869Z,17.60
2022-10-09T13:57:38.653Z,17.60
2022-10-09T14:00:06.992Z,17.60
2022-10-09T14:02:36.622Z,17.60
2022-10-09T14:07:30.762Z,17.70
2022-10-09T14:09:59.008Z,17.70
2022-10-09T14:12:25.936Z,17.70
2022-10-09T14:14:55.620Z,17.70
2022-10-09T14:17:22.570Z,17.70
2022-10-09T14:19:50.307Z,17.70
2022-10-09T14:22:17.003Z,17.50
2022-10-09T14:24:43.704Z,17.70
2022-10-09T14:27:11.031Z,17.70
2022-10-09T14:29:38.201Z,17.60
2022-10-09T14:32:06.400Z,17.60
2022-10-09T14:34:33.113Z,17.70
2022-10-09T14:36:59.847Z,17.70
2022-10-09T14:39:26.574Z,17.70
2022-10-09T14:41:53.402Z,17.70
2022-10-09T14:44:20.069Z,17.70
2022-10-09T14:46:48.263Z,17.70
2022-10-09T14:49:15.033Z,17.60
2022-10-09T14:51:42.442Z,17.60
2022-10-09T14:54:11.045Z,17.60
2022-10-09T14:56:37.950Z,17.70
2022-10-09T14:59:06.033Z,17.70
2022-10-09T15:01:34.650Z,17.70
2022-10-09T15:04:02.838Z,17.70
2022-10-09T15:06:33.102Z,17.70
2022-10-09T15:09:05.691Z,17.80
2022-10-09T15:11:34.823Z,17.80
2022-10-09T15:14:02.004Z,17.70
2022-10-09T15:16:28.736Z,17.80
2022-10-09T15:18:56.224Z,17.70
2022-10-09T15:21:28.916Z,17.70
2022-10-09T15:23:57.625Z,17.70
2022-10-09T15:26:26.267Z,17.70
2022-10-09T15:28:53.514Z,17.70
2022-10-09T15:31:24.978Z,17.70
2022-10-09T15:33:57.423Z,17.70
2022-10-09T15:36:26.233Z,17.70
2022-10-09T15:38:53.499Z,17.70
2022-10-09T15:41:24.184Z,17.80
2022-10-09T15:43:52.137Z,17.80
2022-10-09T15:46:19.360Z,17.80
2022-10-09T15:48:46.649Z,17.80
2022-10-09T15:51:13.771Z,17.80
2022-10-09T15:53:44.118Z,17.80
2022-10-09T15:56:15.032Z,17.80
2022-10-09T15:58:41.756Z,17.80
2022-10-09T16:01:11.758Z,17.80
2022-10-09T16:03:40.337Z,17.80
2022-10-09T16:06:09.805Z,17.80
2022-10-09T16:08:37.142Z,17.80
2022-10-09T16:11:06.144Z,17.80
2022-10-09T16:13:38.098Z,17.80
2022-10-09T16:16:08.265Z,17.80
2022-10-09T16:18:35.536Z,17.80
2022-10-09T16:21:12.142Z,17.80
2022-10-09T16:23:38.803Z,17.70
2022-10-09T16:26:05.742Z,17.80
2022-10-09T16:28:34.105Z,17.70
2022-10-09T16:31:01.192Z,17.70
2022-10-09T16:33:28.539Z,17.70
2022-10-09T16:36:05.797Z,17.70
2022-10-09T16:38:32.523Z,17.70
2022-10-09T16:41:02.796Z,17.70
2022-10-09T16:43:34.291Z,17.70
2022-10-09T16:46:25.542Z,17.70
2022-10-09T16:48:54.212Z,17.60
2022-10-09T16:51:26.810Z,17.60
2022-10-09T16:53:55.300Z,17.60
2022-10-09T16:56:29.586Z,17.60
2022-10-09T16:58:58.197Z,17.60
2022-10-09T17:01:26.095Z,17.60
2022-10-09T17:03:57.941Z,17.60
2022-10-09T17:06:29.226Z,17.50
2022-10-09T17:08:59.002Z,17.50
2022-10-09T17:11:31.090Z,17.40
2022-10-09T17:13:58.587Z,17.40
2022-10-09T17:16:30.532Z,17.40
2022-10-09T17:18:58.839Z,17.40
2022-10-09T17:21:27.941Z,17.30
2022-10-09T17:24:00.623Z,17.30
2022-10-09T17:26:29.284Z,17.20
2022-10-09T17:28:58.690Z,17.20
2022-10-09T17:31:26.921Z,17.20
2022-10-09T17:33:59.668Z,17.10
2022-10-09T17:36:30.229Z,17.10
2022-10-09T17:38:58.947Z,17.00
2022-10-09T17:41:30.142Z,17.00
2022-10-09T17:43:57.700Z,16.90
2022-10-09T17:46:25.675Z,16.90
2022-10-09T17:48:53.519Z,16.90
2022-10-09T17:51:29.732Z,16.80
2022-10-09T17:54:04.030Z,16.80
2022-10-09T17:56:32.807Z,16.70
2022-10-09T17:59:00.655Z,16.70
2022-10-09T18:01:28.103Z,16.70
2022-10-09T18:03:57.406Z,16.70
2022-10-09T18:06:24.197Z,16.60
2022-10-09T18:08:53.389Z,16.60
2022-10-09T18:11:21.164Z,16.50
2022-10-09T18:13:50.381Z,16.40
2022-10-09T18:16:24.250Z,16.40
2022-10-09T18:18:51.256Z,16.40
2022-10-09T18:21:19.329Z,16.40
2022-10-09T18:23:47.475Z,16.30
2022-10-09T18:26:16.578Z,16.30
2022-10-09T18:28:47.449Z,16.20
2022-10-09T18:31:19.968Z,16.20
2022-10-09T18:33:47.001Z,16.20
2022-10-09T18:36:19.854Z,16.20
2022-10-09T18:38:49.604Z,16.10
2022-10-09T18:41:17.430Z,16.00
2022-10-09T18:43:44.479Z,16.00
2022-10-09T18:46:11.597Z,15.90
2022-10-09T18:48:40.226Z,15.90
2022-10-09T18:51:10.976Z,15.90
2022-10-09T18:53:38.706Z,15.90
2022-10-09T18:56:07.067Z,15.80
2022-10-09T18:58:35.560Z,15.80
2022-10-09T19:01:05.466Z,15.80
2022-10-09T19:03:36.774Z,15.70
2022-10-09T19:06:04.814Z,15.70
2022-10-09T19:08:31.544Z,15.60
2022-10-09T19:10:59.664Z,15.60
2022-10-09T19:13:26.974Z,15.50
2022-10-09T19:15:58.619Z,15.50
2022-10-09T19:18:27.121Z,15.50
2022-10-09T19:20:54.013Z,15.40
2022-10-09T19:23:22.208Z,15.40
2022-10-09T19:25:50.877Z,15.30
2022-10-09T19:28:18.154Z,15.30
2022-10-09T19:30:49.156Z,15.20
2022-10-09T19:33:16.430Z,15.20
2022-10-09T19:35:54.283Z,15.20
2022-10-09T19:38:22.479Z,15.20
2022-10-09T19:40:50.305Z,15.20
2022-10-09T19:43:18.865Z,15.10
2022-10-09T19:45:49.181Z,15.00
2022-10-09T19:48:18.296Z,14.90
2022-10-09T19:50:46.105Z,15.00
2022-10-09T19:53:13.330Z,14.90
2022-10-09T19:55:40.553Z,15.00
2022-10-09T19:58:07.549Z,15.00
2022-10-09T20:00:34.660Z,15.00
2022-10-09T20:03:01.301Z,15.00
2022-10-09T20:05:30.342Z,15.00
2022-10-09T20:07:57.108Z,15.00
2022-10-09T20:10:23.821Z,15.00
2022-10-09T20:12:51.899Z,15.00
2022-10-09T20:15:21.268Z,15.00
2022-10-09T20:17:49.816Z,15.00
2022-10-09T20:20:17.264Z,15.00
2022-10-09T20:22:45.097Z,14.90
2022-10-09T20:25:12.873Z,14.90
2022-10-09T20:27:39.756Z,14.90
2022-10-09T20:30:07.274Z,14.90
2022-10-09T20:32:37.333Z,14.80
2022-10-09T20:35:05.375Z,14.80
2022-10-09T20:37:32.140Z,14.80
2022-10-09T20:39:59.589Z,14.80
2022-10-09T20:42:29.865Z,14.70
2022-10-09T20:44:56.517Z,14.70
2022-10-09T20:47:24.349Z,14.70
2022-10-09T20:49:51.715Z,14.70
2022-10-09T20:52:18.716Z,14.70
2022-10-09T20:54:46.801Z,14.70
2022-10-09T20:57:17.395Z,14.70
2022-10-09T20:59:44.176Z,14.60
2022-10-09T21:02:14.414Z,14.60
2022-10-09T21:04:41.435Z,14.50
2022-10-09T21:07:09.517Z,14.50
2022-10-09T21:09:37.015Z,14.50
2022-10-09T21:12:03.826Z,14.50
2022-10-09T21:14:30.580Z,14.50
2022-10-09T21:16:59.143Z,14.50
2022-10-09T21:19:25.835Z,14.40
2022-10-09T21:21:52.548Z,14.40
2022-10-09T21:24:19.312Z,14.40
2022-10-09T21:26:47.614Z,14.40
2022-10-09T21:29:15.081Z,14.40
2022-10-09T21:31:42.388Z,14.40
2022-10-09T21:34:10.144Z,14.40
2022-10-09T21:37:01.804Z,14.30
2022-10-09T21:39:29.422Z,14.30
2022-10-09T21:41:56.332Z,14.30
2022-10-09T21:44:23.156Z,14.30
2022-10-09T21:46:51.688Z,14.30
2022-10-09T21:49:24.333Z,14.30
2022-10-09T21:51:51.047Z,14.20
2022-10-09T21:54:18.021Z,14.20
2022-10-09T21:56:44.986Z,14.20
2022-10-09T21:59:12.525Z,14.10
2022-10-09T22:01:40.315Z,14.20
2022-10-09T22:04:07.347Z,14.20
2022-10-09T22:06:34.008Z,14.10
2022-10-09T22:09:00.981Z,14.10
2022-10-09T22:11:27.760Z,14.10
2022-10-09T22:13:56.119Z,14.10
2022-10-09T22:16:22.936Z,14.10
2022-10-09T22:18:50.973Z,14.10
2022-10-09T22:21:17.840Z,14.10
2022-10-09T22:23:44.513Z,14.20
2022-10-09T22:26:26.050Z,14.20
2022-10-09T22:28:52.831Z,14.20
2022-10-09T22:31:22.860Z,14.30
2022-10-09T22:33:54.779Z,14.20
2022-10-09T22:36:24.156Z,14.20
2022-10-09T22:38:57.063Z,14.20
2022-10-09T22:41:25.020Z,14.20
2022-10-09T22:43:54.028Z,14.20
2022-10-09T22:46:25.415Z,14.20
2022-10-09T22:48:52.919Z,14.20
2022-10-09T22:51:22.126Z,14.20
2022-10-09T22:53:50.456Z,14.20
2022-10-09T22:56:22.772Z,14.20
2022-10-09T22:58:53.042Z,14.20
2022-10-09T23:01:25.345Z,14.20
2022-10-09T23:03:52.132Z,14.20
2022-10-09T23:06:20.169Z,14.20
2022-10-09T23:08:48.018Z,14.10
2022-10-09T23:11:19.770Z,14.20
2022-10-09T23:13:47.614Z,14.10
2022-10-09T23:16:15.162Z,14.10
2022-10-09T23:18:42.979Z,14.10
2022-10-09T23:21:12.796Z,14.00
2022-10-09T23:23:40.654Z,14.00
2022-10-09T23:26:09.252Z,14.10
2022-10-09T23:28:36.687Z,14.00
2022-10-09T23:31:09.048Z,14.00
2022-10-09T23:33:37.741Z,14.00
2022-10-09T23:36:05.468Z,14.00
2022-10-09T23:38:32.539Z,14.00
2022-10-09T23:41:01.195Z,14.00
2022-10-09T23:43:29.134Z,13.90
2022-10-09T23:46:00.671Z,13.90
2022-10-09T23:48:28.529Z,13.90
2022-10-09T23:50:56.350Z,13.90
2022-10-09T23:53:24.812Z,13.90
2022-10-09T23:55:52.364Z,13.90
2022-10-09T23:58:21.067Z,13.90
